sensor_id;sensor_type;location;lat;lon;timestamp;temperature;humidity
45383;DHT22;42455;51.660;5.824;2023-06-19T00:04:33;23.0;74.5
45383;DHT22;42455;51.660;5.824;2023-06-19T00:09:39;23.1;74.5
45383;DHT22;42455;51.660;5.824;2023-06-19T00:14:45;23.2;74.5
45383;DHT22;42455;51.660;5.824;2023-06-19T00:19:52;23.2;75.0
45383;DHT22;42455;51.660;5.824;2023-06-19T00:24:57;23.3;75.0
45383;DHT22;42455;51.660;5.824;2023-06-19T00:30:05;23.4;75.0
45383;DHT22;42455;51.660;5.824;2023-06-19T00:35:10;23.4;75.0
45383;DHT22;42455;51.660;5.824;2023-06-19T00:40:21;23.5;74.5
45383;DHT22;42455;51.660;5.824;2023-06-19T00:45:22;23.5;74.5
45383;DHT22;42455;51.660;5.824;2023-06-19T00:50:29;23.6;74.5
45383;DHT22;42455;51.660;5.824;2023-06-19T00:55:35;23.6;74.5
45383;DHT22;42455;51.660;5.824;2023-06-19T01:00:41;23.6;74.0
45383;DHT22;42455;51.660;5.824;2023-06-19T01:05:49;23.7;74.0
45383;DHT22;42455;51.660;5.824;2023-06-19T01:11:02;23.7;74.0
45383;DHT22;42455;51.660;5.824;2023-06-19T01:16:03;23.7;74.0
45383;DHT22;42455;51.660;5.824;2023-06-19T01:21:09;23.7;74.0
45383;DHT22;42455;51.660;5.824;2023-06-19T01:26:12;23.6;74.0
45383;DHT22;42455;51.660;5.824;2023-06-19T01:31:26;23.6;73.5
45383;DHT22;42455;51.660;5.824;2023-06-19T01:36:25;23.6;73.5
45383;DHT22;42455;51.660;5.824;2023-06-19T01:41:32;23.6;73.5
45383;DHT22;42455;51.660;5.824;2023-06-19T01:46:37;23.5;73.5
45383;DHT22;42455;51.660;5.824;2023-06-19T01:51:43;23.5;74.0
45383;DHT22;42455;51.660;5.824;2023-06-19T01:56:49;23.4;74.0
45383;DHT22;42455;51.660;5.824;2023-06-19T02:01:55;23.4;74.0
45383;DHT22;42455;51.660;5.824;2023-06-19T02:07:02;23.3;74.5
45383;DHT22;42455;51.660;5.824;2023-06-19T02:12:08;23.2;74.5
45383;DHT22;42455;51.660;5.824;2023-06-19T02:17:14;23.2;74.5
45383;DHT22;42455;51.660;5.824;2023-06-19T02:22:20;23.1;75.0
45383;DHT22;42455;51.660;5.824;2023-06-19T02:27:26;23.0;75.5
45383;DHT22;42455;51.660;5.824;2023-06-19T02:32:32;22.8;75.5
45383;DHT22;42455;51.660;5.824;2023-06-19T02:37:39;22.7;76.0
45383;DHT22;42455;51.660;5.824;2023-06-19T02:42:45;22.6;76.5
45383;DHT22;42455;51.660;5.824;2023-06-19T02:47:51;22.4;77.0
45383;DHT22;42455;51.660;5.824;2023-06-19T02:52:57;22.3;77.5
45383;DHT22;42455;51.660;5.824;2023-06-19T02:58:04;22.3;78.5
45383;DHT22;42455;51.660;5.824;2023-06-19T03:03:10;22.2;78.5
45383;DHT22;42455;51.660;5.824;2023-06-19T03:08:16;22.1;79.0
45383;DHT22;42455;51.660;5.824;2023-06-19T03:13:22;22.1;79.0
45383;DHT22;42455;51.660;5.824;2023-06-19T03:18:28;22.0;79.5
45383;DHT22;42455;51.660;5.824;2023-06-19T03:23:35;21.9;79.5
45383;DHT22;42455;51.660;5.824;2023-06-19T03:28:41;21.8;80.0
45383;DHT22;42455;51.660;5.824;2023-06-19T03:33:47;21.7;80.5
45383;DHT22;42455;51.660;5.824;2023-06-19T03:38:53;21.7;80.5
45383;DHT22;42455;51.660;5.824;2023-06-19T03:43:59;21.6;80.5
45383;DHT22;42455;51.660;5.824;2023-06-19T03:49:06;21.6;81.0
45383;DHT22;42455;51.660;5.824;2023-06-19T03:54:12;21.5;81.5
45383;DHT22;42455;51.660;5.824;2023-06-19T03:59:18;21.4;81.5
45383;DHT22;42455;51.660;5.824;2023-06-19T04:04:24;21.4;82.0
45383;DHT22;42455;51.660;5.824;2023-06-19T04:09:31;21.3;82.0
45383;DHT22;42455;51.660;5.824;2023-06-19T04:14:37;21.3;82.5
45383;DHT22;42455;51.660;5.824;2023-06-19T04:19:43;21.2;83.0
45383;DHT22;42455;51.660;5.824;2023-06-19T04:24:49;21.3;83.5
45383;DHT22;42455;51.660;5.824;2023-06-19T04:29:55;21.3;83.5
45383;DHT22;42455;51.660;5.824;2023-06-19T04:35:02;21.3;84.0
45383;DHT22;42455;51.660;5.824;2023-06-19T04:40:08;21.4;84.5
45383;DHT22;42455;51.660;5.824;2023-06-19T04:45:14;21.4;84.5
45383;DHT22;42455;51.660;5.824;2023-06-19T04:55:26;21.5;85.0
45383;DHT22;42455;51.660;5.824;2023-06-19T05:00:33;21.5;85.0
45383;DHT22;42455;51.660;5.824;2023-06-19T05:05:39;21.5;85.5
45383;DHT22;42455;51.660;5.824;2023-06-19T05:10:45;21.6;85.5
45383;DHT22;42455;51.660;5.824;2023-06-19T05:15:51;21.6;85.5
45383;DHT22;42455;51.660;5.824;2023-06-19T05:20:57;21.7;86.0
45383;DHT22;42455;51.660;5.824;2023-06-19T05:26:04;21.7;86.0
45383;DHT22;42455;51.660;5.824;2023-06-19T05:31:10;21.7;86.0
45383;DHT22;42455;51.660;5.824;2023-06-19T05:36:16;21.8;86.0
45383;DHT22;42455;51.660;5.824;2023-06-19T05:41:21;21.8;86.0
45383;DHT22;42455;51.660;5.824;2023-06-19T05:46:27;21.9;86.5
45383;DHT22;42455;51.660;5.824;2023-06-19T05:51:34;21.9;86.5
45383;DHT22;42455;51.660;5.824;2023-06-19T05:56:40;21.9;86.5
45383;DHT22;42455;51.660;5.824;2023-06-19T06:01:46;22.0;86.5
45383;DHT22;42455;51.660;5.824;2023-06-19T06:06:52;22.0;86.5
45383;DHT22;42455;51.660;5.824;2023-06-19T06:11:59;22.1;87.0
45383;DHT22;42455;51.660;5.824;2023-06-19T06:17:05;22.1;86.5
45383;DHT22;42455;51.660;5.824;2023-06-19T06:22:11;22.3;87.0
45383;DHT22;42455;51.660;5.824;2023-06-19T06:27:17;22.3;86.5
45383;DHT22;42455;51.660;5.824;2023-06-19T06:32:23;22.4;86.5
45383;DHT22;42455;51.660;5.824;2023-06-19T06:37:30;22.5;86.5
45383;DHT22;42455;51.660;5.824;2023-06-19T06:42:36;22.7;86.5
45383;DHT22;42455;51.660;5.824;2023-06-19T06:47:42;22.8;86.0
45383;DHT22;42455;51.660;5.824;2023-06-19T06:52:48;23.0;86.0
45383;DHT22;42455;51.660;5.824;2023-06-19T06:57:54;23.2;85.5
45383;DHT22;42455;51.660;5.824;2023-06-19T07:03:01;23.4;85.0
45383;DHT22;42455;51.660;5.824;2023-06-19T07:08:07;23.6;84.5
45383;DHT22;42455;51.660;5.824;2023-06-19T07:13:13;23.8;83.5
45383;DHT22;42455;51.660;5.824;2023-06-19T07:18:19;24.0;83.5
45383;DHT22;42455;51.660;5.824;2023-06-19T07:23:26;24.2;82.5
45383;DHT22;42455;51.660;5.824;2023-06-19T07:28:32;24.2;81.5
45383;DHT22;42455;51.660;5.824;2023-06-19T07:33:38;24.3;81.0
45383;DHT22;42455;51.660;5.824;2023-06-19T07:38:45;24.3;80.5
45383;DHT22;42455;51.660;5.824;2023-06-19T07:43:50;24.5;80.0
45383;DHT22;42455;51.660;5.824;2023-06-19T07:48:57;24.7;79.5
45383;DHT22;42455;51.660;5.824;2023-06-19T07:54:03;24.9;79.0
45383;DHT22;42455;51.660;5.824;2023-06-19T07:59:09;25.1;78.0
45383;DHT22;42455;51.660;5.824;2023-06-19T08:04:15;25.2;77.5
45383;DHT22;42455;51.660;5.824;2023-06-19T08:09:21;25.4;77.0
45383;DHT22;42455;51.660;5.824;2023-06-19T08:14:28;25.5;76.0
45383;DHT22;42455;51.660;5.824;2023-06-19T08:19:34;25.5;75.5
45383;DHT22;42455;51.660;5.824;2023-06-19T08:24:40;25.5;75.5
45383;DHT22;42455;51.660;5.824;2023-06-19T08:29:46;25.4;75.0
45383;DHT22;42455;51.660;5.824;2023-06-19T08:34:52;25.5;75.5
45383;DHT22;42455;51.660;5.824;2023-06-19T08:39:59;25.7;74.5
45383;DHT22;42455;51.660;5.824;2023-06-19T08:45:05;25.9;74.0
45383;DHT22;42455;51.660;5.824;2023-06-19T08:50:11;26.0;73.5
45383;DHT22;42455;51.660;5.824;2023-06-19T08:55:17;26.1;73.0
45383;DHT22;42455;51.660;5.824;2023-06-19T09:00:26;26.2;72.5
45383;DHT22;42455;51.660;5.824;2023-06-19T09:05:30;26.2;72.5
45383;DHT22;42455;51.660;5.824;2023-06-19T09:10:36;26.2;72.0
45383;DHT22;42455;51.660;5.824;2023-06-19T09:15:42;26.2;71.5
45383;DHT22;42455;51.660;5.824;2023-06-19T09:20:52;26.2;72.0
45383;DHT22;42455;51.660;5.824;2023-06-19T09:25:57;26.4;72.0
45383;DHT22;42455;51.660;5.824;2023-06-19T09:31:02;26.5;71.5
45383;DHT22;42455;51.660;5.824;2023-06-19T09:36:07;26.5;71.5
45383;DHT22;42455;51.660;5.824;2023-06-19T09:41:14;26.6;71.0
45383;DHT22;42455;51.660;5.824;2023-06-19T09:46:20;26.6;70.5
45383;DHT22;42455;51.660;5.824;2023-06-19T09:51:30;26.7;70.5
45383;DHT22;42455;51.660;5.824;2023-06-19T09:56:32;26.8;71.0
45383;DHT22;42455;51.660;5.824;2023-06-19T10:01:38;26.9;71.0
45383;DHT22;42455;51.660;5.824;2023-06-19T10:06:45;27.2;70.5
45383;DHT22;42455;51.660;5.824;2023-06-19T10:11:51;27.3;69.5
45383;DHT22;42455;51.660;5.824;2023-06-19T10:17:07;27.4;69.0
45383;DHT22;42455;51.660;5.824;2023-06-19T10:22:03;27.6;69.0
45383;DHT22;42455;51.660;5.824;2023-06-19T10:27:09;27.6;68.5
45383;DHT22;42455;51.660;5.824;2023-06-19T10:32:15;27.7;68.0
45383;DHT22;42455;51.660;5.824;2023-06-19T10:37:31;27.8;68.0
45383;DHT22;42455;51.660;5.824;2023-06-19T10:42:28;27.9;67.5
45383;DHT22;42455;51.660;5.824;2023-06-19T10:47:34;28.1;67.5
45383;DHT22;42455;51.660;5.824;2023-06-19T10:52:41;28.2;66.5
45383;DHT22;42455;51.660;5.824;2023-06-19T10:57:48;28.4;66.0
45383;DHT22;42455;51.660;5.824;2023-06-19T11:02:53;28.5;65.5
45383;DHT22;42455;51.660;5.824;2023-06-19T11:07:59;28.6;65.0
45383;DHT22;42455;51.660;5.824;2023-06-19T11:13:04;28.7;64.0
45383;DHT22;42455;51.660;5.824;2023-06-19T11:18:10;28.7;63.5
45383;DHT22;42455;51.660;5.824;2023-06-19T11:23:17;28.6;62.5
45383;DHT22;42455;51.660;5.824;2023-06-19T11:28:26;28.6;63.0
45383;DHT22;42455;51.660;5.824;2023-06-19T11:33:29;28.6;62.5
45383;DHT22;42455;51.660;5.824;2023-06-19T11:38:35;28.6;62.5
45383;DHT22;42455;51.660;5.824;2023-06-19T11:43:41;28.6;62.5
45383;DHT22;42455;51.660;5.824;2023-06-19T11:48:48;28.6;62.0
45383;DHT22;42455;51.660;5.824;2023-06-19T11:53:54;28.7;62.0
45383;DHT22;42455;51.660;5.824;2023-06-19T11:59:00;28.8;61.5
45383;DHT22;42455;51.660;5.824;2023-06-19T12:04:06;28.9;61.5
45383;DHT22;42455;51.660;5.824;2023-06-19T12:09:13;29.0;60.0
45383;DHT22;42455;51.660;5.824;2023-06-19T12:14:19;29.1;60.0
45383;DHT22;42455;51.660;5.824;2023-06-19T12:19:25;29.2;60.0
45383;DHT22;42455;51.660;5.824;2023-06-19T12:24:31;29.4;58.5
45383;DHT22;42455;51.660;5.824;2023-06-19T12:29:37;29.5;57.5
45383;DHT22;42455;51.660;5.824;2023-06-19T12:34:44;29.6;57.5
45383;DHT22;42455;51.660;5.824;2023-06-19T12:39:50;29.7;58.0
45383;DHT22;42455;51.660;5.824;2023-06-19T12:44:56;29.8;58.0
45383;DHT22;42455;51.660;5.824;2023-06-19T12:50:02;29.9;57.0
45383;DHT22;42455;51.660;5.824;2023-06-19T12:55:08;30.0;56.5
45383;DHT22;42455;51.660;5.824;2023-06-19T13:00:15;30.0;56.5
45383;DHT22;42455;51.660;5.824;2023-06-19T13:05:21;30.1;56.5
45383;DHT22;42455;51.660;5.824;2023-06-19T13:10:27;30.1;56.5
45383;DHT22;42455;51.660;5.824;2023-06-19T13:15:33;30.2;55.5
45383;DHT22;42455;51.660;5.824;2023-06-19T13:20:40;30.3;56.5
45383;DHT22;42455;51.660;5.824;2023-06-19T13:25:46;30.5;56.0
45383;DHT22;42455;51.660;5.824;2023-06-19T13:30:52;30.6;55.5
45383;DHT22;42455;51.660;5.824;2023-06-19T13:35:58;30.6;55.0
45383;DHT22;42455;51.660;5.824;2023-06-19T13:41:04;30.6;55.0
45383;DHT22;42455;51.660;5.824;2023-06-19T13:46:11;30.7;54.5
45383;DHT22;42455;51.660;5.824;2023-06-19T13:51:17;30.8;54.0
45383;DHT22;42455;51.660;5.824;2023-06-19T13:56:23;30.8;54.0
45383;DHT22;42455;51.660;5.824;2023-06-19T14:01:29;30.9;54.0
45383;DHT22;42455;51.660;5.824;2023-06-19T14:06:35;31.0;53.5
45383;DHT22;42455;51.660;5.824;2023-06-19T14:11:42;31.0;53.5
45383;DHT22;42455;51.660;5.824;2023-06-19T14:16:48;30.9;53.0
45383;DHT22;42455;51.660;5.824;2023-06-19T14:21:54;30.8;53.0
45383;DHT22;42455;51.660;5.824;2023-06-19T14:27:00;30.7;53.5
45383;DHT22;42455;51.660;5.824;2023-06-19T14:32:06;30.8;54.5
45383;DHT22;42455;51.660;5.824;2023-06-19T14:37:13;30.9;53.5
45383;DHT22;42455;51.660;5.824;2023-06-19T14:42:19;31.0;53.5
45383;DHT22;42455;51.660;5.824;2023-06-19T14:47:25;31.1;53.0
45383;DHT22;42455;51.660;5.824;2023-06-19T14:52:31;31.2;52.5
45383;DHT22;42455;51.660;5.824;2023-06-19T14:57:38;31.2;52.5
45383;DHT22;42455;51.660;5.824;2023-06-19T15:02:44;31.2;52.5
45383;DHT22;42455;51.660;5.824;2023-06-19T15:07:50;31.2;52.0
45383;DHT22;42455;51.660;5.824;2023-06-19T15:12:56;31.3;52.5
45383;DHT22;42455;51.660;5.824;2023-06-19T15:18:03;31.4;52.5
45383;DHT22;42455;51.660;5.824;2023-06-19T15:23:09;31.5;52.5
45383;DHT22;42455;51.660;5.824;2023-06-19T15:28:15;31.5;51.5
45383;DHT22;42455;51.660;5.824;2023-06-19T15:33:21;31.4;51.5
45383;DHT22;42455;51.660;5.824;2023-06-19T15:38:27;31.4;51.5
45383;DHT22;42455;51.660;5.824;2023-06-19T15:43:33;31.5;51.5
45383;DHT22;42455;51.660;5.824;2023-06-19T15:48:40;31.5;51.5
45383;DHT22;42455;51.660;5.824;2023-06-19T15:53:46;31.4;51.5
45383;DHT22;42455;51.660;5.824;2023-06-19T15:58:52;31.3;51.5
45383;DHT22;42455;51.660;5.824;2023-06-19T16:03:58;31.1;51.0
45383;DHT22;42455;51.660;5.824;2023-06-19T16:09:05;31.0;51.0
45383;DHT22;42455;51.660;5.824;2023-06-19T16:14:11;30.9;52.0
45383;DHT22;42455;51.660;5.824;2023-06-19T16:19:17;30.8;52.5
45383;DHT22;42455;51.660;5.824;2023-06-19T16:24:23;30.8;52.5
45383;DHT22;42455;51.660;5.824;2023-06-19T16:29:29;30.9;52.5
45383;DHT22;42455;51.660;5.824;2023-06-19T16:34:36;30.9;52.5
45383;DHT22;42455;51.660;5.824;2023-06-19T16:39:42;31.0;52.5
45383;DHT22;42455;51.660;5.824;2023-06-19T16:44:47;31.1;52.0
45383;DHT22;42455;51.660;5.824;2023-06-19T16:49:53;31.3;51.5
45383;DHT22;42455;51.660;5.824;2023-06-19T16:54:59;31.4;51.0
45383;DHT22;42455;51.660;5.824;2023-06-19T17:00:06;31.5;50.5
45383;DHT22;42455;51.660;5.824;2023-06-19T17:05:12;31.6;50.0
45383;DHT22;42455;51.660;5.824;2023-06-19T17:10:18;31.6;49.5
45383;DHT22;42455;51.660;5.824;2023-06-19T17:15:24;31.7;49.5
45383;DHT22;42455;51.660;5.824;2023-06-19T17:20:30;31.8;49.5
45383;DHT22;42455;51.660;5.824;2023-06-19T17:25:36;31.9;49.5
45383;DHT22;42455;51.660;5.824;2023-06-19T17:30:42;31.9;49.0
45383;DHT22;42455;51.660;5.824;2023-06-19T17:35:48;31.9;48.5
45383;DHT22;42455;51.660;5.824;2023-06-19T17:40:54;31.9;48.5
45383;DHT22;42455;51.660;5.824;2023-06-19T17:46:01;32.0;48.5
45383;DHT22;42455;51.660;5.824;2023-06-19T17:51:07;31.9;48.0
45383;DHT22;42455;51.660;5.824;2023-06-19T17:56:13;31.8;49.0
45383;DHT22;42455;51.660;5.824;2023-06-19T18:01:19;31.5;49.5
45383;DHT22;42455;51.660;5.824;2023-06-19T18:06:25;30.9;50.5
45383;DHT22;42455;51.660;5.824;2023-06-19T18:11:32;30.6;51.5
45383;DHT22;42455;51.660;5.824;2023-06-19T18:16:38;30.2;52.0
45383;DHT22;42455;51.660;5.824;2023-06-19T18:21:44;30.0;52.5
45383;DHT22;42455;51.660;5.824;2023-06-19T18:26:50;29.7;53.5
45383;DHT22;42455;51.660;5.824;2023-06-19T18:31:56;29.4;53.5
45383;DHT22;42455;51.660;5.824;2023-06-19T18:37:03;29.2;54.5
45383;DHT22;42455;51.660;5.824;2023-06-19T18:42:09;29.0;55.0
45383;DHT22;42455;51.660;5.824;2023-06-19T18:47:15;28.8;55.5
45383;DHT22;42455;51.660;5.824;2023-06-19T18:52:21;28.6;56.0
45383;DHT22;42455;51.660;5.824;2023-06-19T18:57:27;28.5;56.0
45383;DHT22;42455;51.660;5.824;2023-06-19T19:02:34;28.3;56.5
45383;DHT22;42455;51.660;5.824;2023-06-19T19:07:40;28.2;57.0
45383;DHT22;42455;51.660;5.824;2023-06-19T19:12:46;28.0;57.5
45383;DHT22;42455;51.660;5.824;2023-06-19T19:17:52;27.8;57.5
45383;DHT22;42455;51.660;5.824;2023-06-19T19:22:59;27.7;58.5
45383;DHT22;42455;51.660;5.824;2023-06-19T19:28:05;0.0;0.0
45383;DHT22;42455;51.660;5.824;2023-06-19T19:33:12;0.0;0.0
45383;DHT22;42455;51.660;5.824;2023-06-19T19:38:18;26.9;60.0
45383;DHT22;42455;51.660;5.824;2023-06-19T19:43:24;26.7;60.5
45383;DHT22;42455;51.660;5.824;2023-06-19T19:48:30;26.5;61.0
45383;DHT22;42455;51.660;5.824;2023-06-19T19:53:36;26.3;61.5
45383;DHT22;42455;51.660;5.824;2023-06-19T19:58:43;26.1;61.5
45383;DHT22;42455;51.660;5.824;2023-06-19T20:03:49;25.9;62.5
45383;DHT22;42455;51.660;5.824;2023-06-19T20:08:55;25.7;63.0
45383;DHT22;42455;51.660;5.824;2023-06-19T20:14:01;25.6;63.5
45383;DHT22;42455;51.660;5.824;2023-06-19T20:19:07;25.4;63.5
45383;DHT22;42455;51.660;5.824;2023-06-19T20:24:14;25.3;64.0
45383;DHT22;42455;51.660;5.824;2023-06-19T20:29:20;25.1;64.5
45383;DHT22;42455;51.660;5.824;2023-06-19T20:34:26;25.0;64.5
45383;DHT22;42455;51.660;5.824;2023-06-19T20:39:32;24.9;65.0
45383;DHT22;42455;51.660;5.824;2023-06-19T20:44:38;24.9;65.0
45383;DHT22;42455;51.660;5.824;2023-06-19T20:49:45;24.8;65.5
45383;DHT22;42455;51.660;5.824;2023-06-19T20:54:51;24.7;66.0
45383;DHT22;42455;51.660;5.824;2023-06-19T20:59:57;24.6;66.0
45383;DHT22;42455;51.660;5.824;2023-06-19T21:05:04;24.6;66.0
45383;DHT22;42455;51.660;5.824;2023-06-19T21:10:10;24.5;66.5
45383;DHT22;42455;51.660;5.824;2023-06-19T21:15:16;24.5;67.0
45383;DHT22;42455;51.660;5.824;2023-06-19T21:20:22;24.4;67.0
45383;DHT22;42455;51.660;5.824;2023-06-19T21:25:28;24.4;67.5
45383;DHT22;42455;51.660;5.824;2023-06-19T21:30:34;24.3;67.5
45383;DHT22;42455;51.660;5.824;2023-06-19T21:35:41;24.3;67.5
45383;DHT22;42455;51.660;5.824;2023-06-19T21:40:47;24.3;68.0
45383;DHT22;42455;51.660;5.824;2023-06-19T21:45:53;24.2;68.0
45383;DHT22;42455;51.660;5.824;2023-06-19T21:50:59;24.2;68.0
45383;DHT22;42455;51.660;5.824;2023-06-19T21:56:05;24.2;68.0
45383;DHT22;42455;51.660;5.824;2023-06-19T22:01:12;24.1;68.5
45383;DHT22;42455;51.660;5.824;2023-06-19T22:06:18;24.1;68.5
45383;DHT22;42455;51.660;5.824;2023-06-19T22:11:24;24.1;69.0
45383;DHT22;42455;51.660;5.824;2023-06-19T22:16:30;24.0;69.0
45383;DHT22;42455;51.660;5.824;2023-06-19T22:21:36;24.0;69.0
45383;DHT22;42455;51.660;5.824;2023-06-19T22:26:43;24.0;69.5
45383;DHT22;42455;51.660;5.824;2023-06-19T22:31:49;23.9;70.0
45383;DHT22;42455;51.660;5.824;2023-06-19T22:36:55;23.9;70.5
45383;DHT22;42455;51.660;5.824;2023-06-19T22:42:01;23.8;70.5
45383;DHT22;42455;51.660;5.824;2023-06-19T22:47:08;23.8;71.0
45383;DHT22;42455;51.660;5.824;2023-06-19T22:52:13;23.7;71.5
45383;DHT22;42455;51.660;5.824;2023-06-19T22:57:19;23.7;72.0
45383;DHT22;42455;51.660;5.824;2023-06-19T23:02:25;23.6;72.0
45383;DHT22;42455;51.660;5.824;2023-06-19T23:07:31;23.6;72.0
45383;DHT22;42455;51.660;5.824;2023-06-19T23:12:38;23.6;72.5
45383;DHT22;42455;51.660;5.824;2023-06-19T23:17:44;23.5;72.5
45383;DHT22;42455;51.660;5.824;2023-06-19T23:22:50;23.5;72.5
45383;DHT22;42455;51.660;5.824;2023-06-19T23:27:56;23.5;72.5
45383;DHT22;42455;51.660;5.824;2023-06-19T23:33:02;23.4;73.0
45383;DHT22;42455;51.660;5.824;2023-06-19T23:38:09;23.4;73.0
45383;DHT22;42455;51.660;5.824;2023-06-19T23:43:15;23.3;73.0
45383;DHT22;42455;51.660;5.824;2023-06-19T23:48:21;23.3;73.0
45383;DHT22;42455;51.660;5.824;2023-06-19T23:53:27;23.3;73.5
45383;DHT22;42455;51.660;5.824;2023-06-19T23:58:33;23.3;73.5
